sensor_id;sensor_type;location;lat;lon;timestamp;temperature;humidity
31729;DHT22;18309;43.658;1.312;2023-09-30T00:02:11;20.90;99.90
31729;DHT22;18309;43.658;1.312;2023-09-30T00:04:38;20.80;99.90
31729;DHT22;18309;43.658;1.312;2023-09-30T00:07:04;20.70;99.90
31729;DHT22;18309;43.658;1.312;2023-09-30T00:09:30;20.40;99.90
31729;DHT22;18309;43.658;1.312;2023-09-30T00:11:56;20.50;99.90
31729;DHT22;18309;43.658;1.312;2023-09-30T00:14:22;20.40;99.90
31729;DHT22;18309;43.658;1.312;2023-09-30T00:16:48;20.30;99.90
31729;DHT22;18309;43.658;1.312;2023-09-30T00:19:14;20.20;99.90
31729;DHT22;18309;43.658;1.312;2023-09-30T00:21:40;20.30;99.90
31729;DHT22;18309;43.658;1.312;2023-09-30T00:24:06;20.30;99.90
31729;DHT22;18309;43.658;1.312;2023-09-30T00:26:31;20.20;99.90
31729;DHT22;18309;43.658;1.312;2023-09-30T00:28:57;20.30;99.90
31729;DHT22;18309;43.658;1.312;2023-09-30T00:31:23;20.40;99.90
31729;DHT22;18309;43.658;1.312;2023-09-30T00:33:49;20.40;99.90
31729;DHT22;18309;43.658;1.312;2023-09-30T00:36:15;20.40;99.90
31729;DHT22;18309;43.658;1.312;2023-09-30T00:38:43;20.30;99.90
31729;DHT22;18309;43.658;1.312;2023-09-30T00:41:09;20.20;99.90
31729;DHT22;18309;43.658;1.312;2023-09-30T00:43:34;20.20;99.90
31729;DHT22;18309;43.658;1.312;2023-09-30T00:46:10;20.30;99.90
31729;DHT22;18309;43.658;1.312;2023-09-30T00:48:38;20.10;99.90
31729;DHT22;18309;43.658;1.312;2023-09-30T00:51:04;20.20;99.90
31729;DHT22;18309;43.658;1.312;2023-09-30T00:53:31;20.20;99.90
31729;DHT22;18309;43.658;1.312;2023-09-30T00:55:57;20.10;99.90
31729;DHT22;18309;43.658;1.312;2023-09-30T00:58:25;20.00;99.90
31729;DHT22;18309;43.658;1.312;2023-09-30T01:00:55;20.00;99.90
31729;DHT22;18309;43.658;1.312;2023-09-30T01:03:22;19.90;99.90
31729;DHT22;18309;43.658;1.312;2023-09-30T01:05:49;19.90;99.90
31729;DHT22;18309;43.658;1.312;2023-09-30T01:08:16;20.00;99.90
31729;DHT22;18309;43.658;1.312;2023-09-30T01:10:42;20.00;99.90
31729;DHT22;18309;43.658;1.312;2023-09-30T01:13:07;20.00;99.90
31729;DHT22;18309;43.658;1.312;2023-09-30T01:15:33;19.80;99.90
31729;DHT22;18309;43.658;1.312;2023-09-30T01:17:59;19.80;99.90
31729;DHT22;18309;43.658;1.312;2023-09-30T01:20:25;19.70;99.90
31729;DHT22;18309;43.658;1.312;2023-09-30T01:22:53;19.70;99.90
31729;DHT22;18309;43.658;1.312;2023-09-30T01:25:19;19.70;99.90
31729;DHT22;18309;43.658;1.312;2023-09-30T01:27:45;19.70;99.90
31729;DHT22;18309;43.658;1.312;2023-09-30T01:30:11;19.60;99.90
31729;DHT22;18309;43.658;1.312;2023-09-30T01:32:39;19.60;99.90
31729;DHT22;18309;43.658;1.312;2023-09-30T01:35:05;19.50;99.90
31729;DHT22;18309;43.658;1.312;2023-09-30T01:37:31;19.60;99.90
31729;DHT22;18309;43.658;1.312;2023-09-30T01:39:57;19.50;99.90
31729;DHT22;18309;43.658;1.312;2023-09-30T01:42:23;19.60;99.90
31729;DHT22;18309;43.658;1.312;2023-09-30T01:44:48;19.60;99.90
31729;DHT22;18309;43.658;1.312;2023-09-30T01:47:14;19.60;99.90
31729;DHT22;18309;43.658;1.312;2023-09-30T01:49:40;19.70;99.90
31729;DHT22;18309;43.658;1.312;2023-09-30T01:52:05;19.80;99.90
31729;DHT22;18309;43.658;1.312;2023-09-30T01:54:31;19.70;99.90
31729;DHT22;18309;43.658;1.312;2023-09-30T01:56:57;19.70;99.90
31729;DHT22;18309;43.658;1.312;2023-09-30T01:59:24;19.70;99.90
31729;DHT22;18309;43.658;1.312;2023-09-30T02:01:50;19.70;99.90
31729;DHT22;18309;43.658;1.312;2023-09-30T02:04:16;19.70;99.90
31729;DHT22;18309;43.658;1.312;2023-09-30T02:06:42;19.80;99.90
31729;DHT22;18309;43.658;1.312;2023-09-30T02:09:09;19.70;99.90
31729;DHT22;18309;43.658;1.312;2023-09-30T02:11:36;19.70;99.90
31729;DHT22;18309;43.658;1.312;2023-09-30T02:14:03;19.80;99.90
31729;DHT22;18309;43.658;1.312;2023-09-30T02:16:29;19.80;99.90
31729;DHT22;18309;43.658;1.312;2023-09-30T02:18:55;19.70;99.90
31729;DHT22;18309;43.658;1.312;2023-09-30T02:21:20;19.70;99.90
31729;DHT22;18309;43.658;1.312;2023-09-30T02:23:47;19.70;99.90
31729;DHT22;18309;43.658;1.312;2023-09-30T02:26:20;19.70;99.90
31729;DHT22;18309;43.658;1.312;2023-09-30T02:28:47;19.60;99.90
31729;DHT22;18309;43.658;1.312;2023-09-30T02:31:12;19.60;99.90
31729;DHT22;18309;43.658;1.312;2023-09-30T02:33:38;19.60;99.90
31729;DHT22;18309;43.658;1.312;2023-09-30T02:36:08;19.60;99.90
31729;DHT22;18309;43.658;1.312;2023-09-30T02:38:37;19.60;99.90
31729;DHT22;18309;43.658;1.312;2023-09-30T02:41:03;19.50;99.90
31729;DHT22;18309;43.658;1.312;2023-09-30T02:43:29;19.50;99.90
31729;DHT22;18309;43.658;1.312;2023-09-30T02:45:55;19.40;99.90
31729;DHT22;18309;43.658;1.312;2023-09-30T02:48:20;19.30;99.90
31729;DHT22;18309;43.658;1.312;2023-09-30T02:50:46;19.30;99.90
31729;DHT22;18309;43.658;1.312;2023-09-30T02:53:13;19.20;99.90
31729;DHT22;18309;43.658;1.312;2023-09-30T02:55:39;19.20;99.90
31729;DHT22;18309;43.658;1.312;2023-09-30T02:58:06;19.20;99.90
31729;DHT22;18309;43.658;1.312;2023-09-30T03:00:34;19.20;99.90
31729;DHT22;18309;43.658;1.312;2023-09-30T03:03:01;19.00;99.90
31729;DHT22;18309;43.658;1.312;2023-09-30T03:05:30;19.10;99.90
31729;DHT22;18309;43.658;1.312;2023-09-30T03:08:01;19.10;99.90
31729;DHT22;18309;43.658;1.312;2023-09-30T03:10:27;19.00;99.90
31729;DHT22;18309;43.658;1.312;2023-09-30T03:12:53;18.90;99.90
31729;DHT22;18309;43.658;1.312;2023-09-30T03:15:20;19.00;99.90
31729;DHT22;18309;43.658;1.312;2023-09-30T03:17:46;18.90;99.90
31729;DHT22;18309;43.658;1.312;2023-09-30T03:20:12;18.90;99.90
31729;DHT22;18309;43.658;1.312;2023-09-30T03:22:40;18.80;99.90
31729;DHT22;18309;43.658;1.312;2023-09-30T03:25:07;18.80;99.90
31729;DHT22;18309;43.658;1.312;2023-09-30T03:27:34;18.80;99.90
31729;DHT22;18309;43.658;1.312;2023-09-30T03:29:59;18.70;99.90
31729;DHT22;18309;43.658;1.312;2023-09-30T03:32:26;18.80;99.90
31729;DHT22;18309;43.658;1.312;2023-09-30T03:34:53;18.80;99.90
31729;DHT22;18309;43.658;1.312;2023-09-30T03:37:19;18.70;99.90
31729;DHT22;18309;43.658;1.312;2023-09-30T03:39:44;18.70;99.90
31729;DHT22;18309;43.658;1.312;2023-09-30T03:42:14;18.70;99.90
31729;DHT22;18309;43.658;1.312;2023-09-30T03:44:40;18.60;99.90
31729;DHT22;18309;43.658;1.312;2023-09-30T03:47:06;18.60;99.90
31729;DHT22;18309;43.658;1.312;2023-09-30T03:49:33;18.70;99.90
31729;DHT22;18309;43.658;1.312;2023-09-30T03:51:59;18.60;99.90
31729;DHT22;18309;43.658;1.312;2023-09-30T03:54:26;18.60;99.90
31729;DHT22;18309;43.658;1.312;2023-09-30T03:56:52;18.50;99.90
31729;DHT22;18309;43.658;1.312;2023-09-30T03:59:18;18.40;99.90
31729;DHT22;18309;43.658;1.312;2023-09-30T04:01:44;18.50;99.90
31729;DHT22;18309;43.658;1.312;2023-09-30T04:04:11;18.30;99.90
31729;DHT22;18309;43.658;1.312;2023-09-30T04:06:37;18.40;99.90
31729;DHT22;18309;43.658;1.312;2023-09-30T04:09:06;18.40;99.90
31729;DHT22;18309;43.658;1.312;2023-09-30T04:11:38;18.20;99.90
31729;DHT22;18309;43.658;1.312;2023-09-30T04:14:07;18.20;99.90
31729;DHT22;18309;43.658;1.312;2023-09-30T04:16:33;18.10;99.90
31729;DHT22;18309;43.658;1.312;2023-09-30T04:18:59;18.10;99.90
31729;DHT22;18309;43.658;1.312;2023-09-30T04:21:26;18.10;99.90
31729;DHT22;18309;43.658;1.312;2023-09-30T04:23:53;18.10;99.90
31729;DHT22;18309;43.658;1.312;2023-09-30T04:26:19;18.00;99.90
31729;DHT22;18309;43.658;1.312;2023-09-30T04:28:45;18.20;99.90
31729;DHT22;18309;43.658;1.312;2023-09-30T04:31:10;18.00;99.90
31729;DHT22;18309;43.658;1.312;2023-09-30T04:33:39;17.80;99.90
31729;DHT22;18309;43.658;1.312;2023-09-30T04:36:06;17.70;99.90
31729;DHT22;18309;43.658;1.312;2023-09-30T04:38:34;17.70;99.90
31729;DHT22;18309;43.658;1.312;2023-09-30T04:41:00;17.70;99.90
31729;DHT22;18309;43.658;1.312;2023-09-30T04:43:26;17.70;99.90
31729;DHT22;18309;43.658;1.312;2023-09-30T04:45:55;17.70;99.90
31729;DHT22;18309;43.658;1.312;2023-09-30T04:48:23;17.70;99.90
31729;DHT22;18309;43.658;1.312;2023-09-30T04:50:49;17.60;99.90
31729;DHT22;18309;43.658;1.312;2023-09-30T04:53:16;17.60;99.90
31729;DHT22;18309;43.658;1.312;2023-09-30T04:55:44;17.70;99.90
31729;DHT22;18309;43.658;1.312;2023-09-30T04:58:10;17.70;99.90
31729;DHT22;18309;43.658;1.312;2023-09-30T05:00:36;17.60;99.90
31729;DHT22;18309;43.658;1.312;2023-09-30T05:03:02;17.70;99.90
31729;DHT22;18309;43.658;1.312;2023-09-30T05:05:28;17.70;99.90
31729;DHT22;18309;43.658;1.312;2023-09-30T05:07:54;17.70;99.90
31729;DHT22;18309;43.658;1.312;2023-09-30T05:10:19;17.80;99.90
31729;DHT22;18309;43.658;1.312;2023-09-30T05:12:45;17.80;99.90
31729;DHT22;18309;43.658;1.312;2023-09-30T05:15:12;17.80;99.90
31729;DHT22;18309;43.658;1.312;2023-09-30T05:17:39;17.70;99.90
31729;DHT22;18309;43.658;1.312;2023-09-30T05:20:05;17.70;99.90
31729;DHT22;18309;43.658;1.312;2023-09-30T05:22:33;17.60;99.90
31729;DHT22;18309;43.658;1.312;2023-09-30T05:24:59;17.60;99.90
31729;DHT22;18309;43.658;1.312;2023-09-30T05:27:25;17.40;99.90
31729;DHT22;18309;43.658;1.312;2023-09-30T05:29:52;17.40;99.90
31729;DHT22;18309;43.658;1.312;2023-09-30T05:32:18;17.20;99.90
31729;DHT22;18309;43.658;1.312;2023-09-30T05:34:44;17.10;99.90
31729;DHT22;18309;43.658;1.312;2023-09-30T05:37:09;16.90;99.90
31729;DHT22;18309;43.658;1.312;2023-09-30T05:39:35;16.80;99.90
31729;DHT22;18309;43.658;1.312;2023-09-30T05:42:01;16.80;99.90
31729;DHT22;18309;43.658;1.312;2023-09-30T05:44:27;16.80;99.90
31729;DHT22;18309;43.658;1.312;2023-09-30T05:46:53;16.90;99.90
31729;DHT22;18309;43.658;1.312;2023-09-30T05:49:19;17.00;99.90
31729;DHT22;18309;43.658;1.312;2023-09-30T05:51:45;17.00;99.90
31729;DHT22;18309;43.658;1.312;2023-09-30T05:54:12;17.00;99.90
31729;DHT22;18309;43.658;1.312;2023-09-30T05:56:38;16.90;99.90
31729;DHT22;18309;43.658;1.312;2023-09-30T05:59:04;16.90;99.90
31729;DHT22;18309;43.658;1.312;2023-09-30T06:01:31;16.90;99.90
31729;DHT22;18309;43.658;1.312;2023-09-30T06:04:01;16.80;99.90
31729;DHT22;18309;43.658;1.312;2023-09-30T06:06:28;16.80;99.90
31729;DHT22;18309;43.658;1.312;2023-09-30T06:08:57;16.90;99.90
31729;DHT22;18309;43.658;1.312;2023-09-30T06:11:24;16.80;99.90
31729;DHT22;18309;43.658;1.312;2023-09-30T06:13:57;16.80;99.90
31729;DHT22;18309;43.658;1.312;2023-09-30T06:16:30;17.00;99.90
31729;DHT22;18309;43.658;1.312;2023-09-30T06:18:57;17.30;99.90
31729;DHT22;18309;43.658;1.312;2023-09-30T06:21:24;18.00;99.90
31729;DHT22;18309;43.658;1.312;2023-09-30T06:23:54;18.30;99.90
31729;DHT22;18309;43.658;1.312;2023-09-30T06:26:20;18.70;99.90
31729;DHT22;18309;43.658;1.312;2023-09-30T06:28:51;18.70;99.90
31729;DHT22;18309;43.658;1.312;2023-09-30T06:31:19;18.80;99.90
31729;DHT22;18309;43.658;1.312;2023-09-30T06:33:45;18.80;99.90
31729;DHT22;18309;43.658;1.312;2023-09-30T06:36:12;18.70;99.90
31729;DHT22;18309;43.658;1.312;2023-09-30T06:38:41;18.80;99.90
31729;DHT22;18309;43.658;1.312;2023-09-30T06:41:08;18.90;99.90
31729;DHT22;18309;43.658;1.312;2023-09-30T06:43:35;18.90;99.90
31729;DHT22;18309;43.658;1.312;2023-09-30T06:46:07;19.20;99.90
31729;DHT22;18309;43.658;1.312;2023-09-30T06:48:38;19.30;99.90
31729;DHT22;18309;43.658;1.312;2023-09-30T06:51:06;19.40;99.90
31729;DHT22;18309;43.658;1.312;2023-09-30T06:53:31;19.30;99.90
31729;DHT22;18309;43.658;1.312;2023-09-30T06:55:57;19.40;99.90
31729;DHT22;18309;43.658;1.312;2023-09-30T06:58:23;19.40;99.90
31729;DHT22;18309;43.658;1.312;2023-09-30T07:00:50;19.40;99.90
31729;DHT22;18309;43.658;1.312;2023-09-30T07:03:17;19.60;99.90
31729;DHT22;18309;43.658;1.312;2023-09-30T07:05:44;19.70;99.90
31729;DHT22;18309;43.658;1.312;2023-09-30T07:08:10;20.00;99.90
31729;DHT22;18309;43.658;1.312;2023-09-30T07:10:36;19.80;99.90
31729;DHT22;18309;43.658;1.312;2023-09-30T07:13:04;19.90;99.90
31729;DHT22;18309;43.658;1.312;2023-09-30T07:15:30;20.00;99.90
31729;DHT22;18309;43.658;1.312;2023-09-30T07:17:55;20.00;99.90
31729;DHT22;18309;43.658;1.312;2023-09-30T07:20:21;20.00;99.90
31729;DHT22;18309;43.658;1.312;2023-09-30T07:22:48;19.90;99.90
31729;DHT22;18309;43.658;1.312;2023-09-30T07:25:14;19.80;99.90
31729;DHT22;18309;43.658;1.312;2023-09-30T07:27:44;20.00;99.90
31729;DHT22;18309;43.658;1.312;2023-09-30T07:30:11;19.90;99.90
31729;DHT22;18309;43.658;1.312;2023-09-30T07:32:38;20.00;99.90
31729;DHT22;18309;43.658;1.312;2023-09-30T07:35:06;20.10;99.90
31729;DHT22;18309;43.658;1.312;2023-09-30T07:37:32;20.20;99.90
31729;DHT22;18309;43.658;1.312;2023-09-30T07:39:57;20.20;99.90
31729;DHT22;18309;43.658;1.312;2023-09-30T07:42:23;20.40;99.90
31729;DHT22;18309;43.658;1.312;2023-09-30T07:44:49;20.30;99.90
31729;DHT22;18309;43.658;1.312;2023-09-30T07:47:15;20.40;99.90
31729;DHT22;18309;43.658;1.312;2023-09-30T07:49:40;20.70;99.90
31729;DHT22;18309;43.658;1.312;2023-09-30T07:52:06;20.60;99.90
31729;DHT22;18309;43.658;1.312;2023-09-30T07:54:32;20.50;99.90
31729;DHT22;18309;43.658;1.312;2023-09-30T07:56:58;20.50;99.90
31729;DHT22;18309;43.658;1.312;2023-09-30T07:59:25;20.50;99.90
31729;DHT22;18309;43.658;1.312;2023-09-30T08:01:51;20.60;99.90
31729;DHT22;18309;43.658;1.312;2023-09-30T08:04:18;20.60;99.90
31729;DHT22;18309;43.658;1.312;2023-09-30T08:06:44;20.70;99.90
31729;DHT22;18309;43.658;1.312;2023-09-30T08:09:12;20.80;99.90
31729;DHT22;18309;43.658;1.312;2023-09-30T08:11:38;20.80;99.90
31729;DHT22;18309;43.658;1.312;2023-09-30T08:14:06;20.90;99.90
31729;DHT22;18309;43.658;1.312;2023-09-30T08:16:35;20.90;99.90
31729;DHT22;18309;43.658;1.312;2023-09-30T08:19:02;21.00;99.90
31729;DHT22;18309;43.658;1.312;2023-09-30T08:21:29;21.00;99.90
31729;DHT22;18309;43.658;1.312;2023-09-30T08:23:54;21.10;99.90
31729;DHT22;18309;43.658;1.312;2023-09-30T08:26:20;21.20;99.90
31729;DHT22;18309;43.658;1.312;2023-09-30T08:28:46;21.20;99.90
31729;DHT22;18309;43.658;1.312;2023-09-30T08:31:12;21.20;99.90
31729;DHT22;18309;43.658;1.312;2023-09-30T08:33:37;21.30;99.90
31729;DHT22;18309;43.658;1.312;2023-09-30T08:36:05;21.30;99.90
31729;DHT22;18309;43.658;1.312;2023-09-30T08:38:36;21.40;99.90
31729;DHT22;18309;43.658;1.312;2023-09-30T08:41:02;21.50;99.90
31729;DHT22;18309;43.658;1.312;2023-09-30T08:43:28;21.60;99.90
31729;DHT22;18309;43.658;1.312;2023-09-30T08:45:58;21.70;99.90
31729;DHT22;18309;43.658;1.312;2023-09-30T08:48:26;21.70;99.90
31729;DHT22;18309;43.658;1.312;2023-09-30T08:50:53;21.70;99.90
31729;DHT22;18309;43.658;1.312;2023-09-30T08:53:20;21.80;99.90
31729;DHT22;18309;43.658;1.312;2023-09-30T08:55:46;21.90;99.90
31729;DHT22;18309;43.658;1.312;2023-09-30T08:58:13;21.90;99.90
31729;DHT22;18309;43.658;1.312;2023-09-30T09:00:39;22.00;99.90
31729;DHT22;18309;43.658;1.312;2023-09-30T09:03:07;22.00;99.90
31729;DHT22;18309;43.658;1.312;2023-09-30T09:05:34;22.10;99.90
31729;DHT22;18309;43.658;1.312;2023-09-30T09:07:59;22.20;99.90
31729;DHT22;18309;43.658;1.312;2023-09-30T09:10:25;22.20;99.90
31729;DHT22;18309;43.658;1.312;2023-09-30T09:12:58;22.30;99.90
31729;DHT22;18309;43.658;1.312;2023-09-30T09:15:28;22.30;99.90
31729;DHT22;18309;43.658;1.312;2023-09-30T09:17:54;22.30;99.90
31729;DHT22;18309;43.658;1.312;2023-09-30T09:20:25;22.50;99.90
31729;DHT22;18309;43.658;1.312;2023-09-30T09:22:55;22.60;99.90
31729;DHT22;18309;43.658;1.312;2023-09-30T09:25:22;22.70;99.90
31729;DHT22;18309;43.658;1.312;2023-09-30T09:27:53;22.70;99.90
31729;DHT22;18309;43.658;1.312;2023-09-30T09:30:26;22.90;99.90
31729;DHT22;18309;43.658;1.312;2023-09-30T09:32:58;23.00;99.90
31729;DHT22;18309;43.658;1.312;2023-09-30T09:35:24;23.10;99.90
31729;DHT22;18309;43.658;1.312;2023-09-30T09:40:27;23.30;99.60
31729;DHT22;18309;43.658;1.312;2023-09-30T09:42:54;23.50;98.80
31729;DHT22;18309;43.658;1.312;2023-09-30T09:45:24;23.60;98.70
31729;DHT22;18309;43.658;1.312;2023-09-30T09:47:51;23.70;98.50
31729;DHT22;18309;43.658;1.312;2023-09-30T09:50:18;23.60;98.50
31729;DHT22;18309;43.658;1.312;2023-09-30T09:52:51;23.60;98.30
31729;DHT22;18309;43.658;1.312;2023-09-30T09:55:19;23.70;98.00
31729;DHT22;18309;43.658;1.312;2023-09-30T09:57:45;23.90;97.50
31729;DHT22;18309;43.658;1.312;2023-09-30T10:00:31;24.00;97.00
31729;DHT22;18309;43.658;1.312;2023-09-30T10:02:59;24.00;96.70
31729;DHT22;18309;43.658;1.312;2023-09-30T10:05:25;24.00;96.80
31729;DHT22;18309;43.658;1.312;2023-09-30T10:07:53;24.10;96.70
31729;DHT22;18309;43.658;1.312;2023-09-30T10:10:20;24.10;96.80
31729;DHT22;18309;43.658;1.312;2023-09-30T10:12:47;24.40;96.60
31729;DHT22;18309;43.658;1.312;2023-09-30T10:18:17;24.40;95.10
31729;DHT22;18309;43.658;1.312;2023-09-30T10:20:44;24.40;95.70
31729;DHT22;18309;43.658;1.312;2023-09-30T10:23:24;24.50;95.80
31729;DHT22;18309;43.658;1.312;2023-09-30T10:26:13;24.50;95.80
31729;DHT22;18309;43.658;1.312;2023-09-30T10:28:44;24.50;95.70
31729;DHT22;18309;43.658;1.312;2023-09-30T10:36:32;24.60;95.30
31729;DHT22;18309;43.658;1.312;2023-09-30T10:38:59;24.70;95.40
31729;DHT22;18309;43.658;1.312;2023-09-30T10:51:53;25.00;94.80
31729;DHT22;18309;43.658;1.312;2023-09-30T10:54:28;25.10;94.50
31729;DHT22;18309;43.658;1.312;2023-09-30T10:56:54;25.10;94.50
31729;DHT22;18309;43.658;1.312;2023-09-30T10:59:25;25.10;94.20
31729;DHT22;18309;43.658;1.312;2023-09-30T11:01:50;25.20;94.20
31729;DHT22;18309;43.658;1.312;2023-09-30T11:04:17;25.40;93.70
31729;DHT22;18309;43.658;1.312;2023-09-30T11:06:44;25.40;94.20
31729;DHT22;18309;43.658;1.312;2023-09-30T11:09:18;25.50;94.10
31729;DHT22;18309;43.658;1.312;2023-09-30T11:11:49;25.50;93.90
31729;DHT22;18309;43.658;1.312;2023-09-30T11:16:52;25.60;93.70
31729;DHT22;18309;43.658;1.312;2023-09-30T11:19:18;25.60;93.70
31729;DHT22;18309;43.658;1.312;2023-09-30T11:21:52;25.70;93.60
31729;DHT22;18309;43.658;1.312;2023-09-30T11:24:18;25.60;93.70
31729;DHT22;18309;43.658;1.312;2023-09-30T11:26:45;25.80;93.30
31729;DHT22;18309;43.658;1.312;2023-09-30T11:29:16;25.80;92.80
31729;DHT22;18309;43.658;1.312;2023-09-30T11:31:46;26.10;92.90
31729;DHT22;18309;43.658;1.312;2023-09-30T11:34:15;26.00;92.90
31729;DHT22;18309;43.658;1.312;2023-09-30T11:36:50;26.00;92.80
31729;DHT22;18309;43.658;1.312;2023-09-30T11:39:26;26.10;93.00
31729;DHT22;18309;43.658;1.312;2023-09-30T11:41:53;26.20;92.70
31729;DHT22;18309;43.658;1.312;2023-09-30T11:44:20;26.30;92.60
31729;DHT22;18309;43.658;1.312;2023-09-30T11:47:01;26.30;92.90
31729;DHT22;18309;43.658;1.312;2023-09-30T11:49:38;26.40;91.90
31729;DHT22;18309;43.658;1.312;2023-09-30T11:52:08;26.40;92.10
31729;DHT22;18309;43.658;1.312;2023-09-30T11:54:40;26.40;91.80
31729;DHT22;18309;43.658;1.312;2023-09-30T11:57:11;26.50;91.80
31729;DHT22;18309;43.658;1.312;2023-09-30T11:59:38;26.40;91.30
31729;DHT22;18309;43.658;1.312;2023-09-30T12:02:04;26.40;91.40
31729;DHT22;18309;43.658;1.312;2023-09-30T12:04:37;26.60;91.00
31729;DHT22;18309;43.658;1.312;2023-09-30T12:07:04;26.60;90.90
31729;DHT22;18309;43.658;1.312;2023-09-30T12:09:32;26.60;91.10
31729;DHT22;18309;43.658;1.312;2023-09-30T12:11:58;26.70;91.40
31729;DHT22;18309;43.658;1.312;2023-09-30T12:14:24;26.60;91.20
31729;DHT22;18309;43.658;1.312;2023-09-30T12:16:50;26.90;91.10
31729;DHT22;18309;43.658;1.312;2023-09-30T12:19:19;27.00;91.60
31729;DHT22;18309;43.658;1.312;2023-09-30T12:21:46;27.10;91.30
31729;DHT22;18309;43.658;1.312;2023-09-30T12:24:14;27.20;91.00
31729;DHT22;18309;43.658;1.312;2023-09-30T12:26:49;27.30;90.70
31729;DHT22;18309;43.658;1.312;2023-09-30T12:29:15;27.40;90.70
31729;DHT22;18309;43.658;1.312;2023-09-30T12:31:45;27.50;90.20
31729;DHT22;18309;43.658;1.312;2023-09-30T12:34:11;27.60;90.10
31729;DHT22;18309;43.658;1.312;2023-09-30T12:36:38;27.80;89.30
31729;DHT22;18309;43.658;1.312;2023-09-30T12:39:06;27.80;89.10
31729;DHT22;18309;43.658;1.312;2023-09-30T12:41:44;27.70;88.20
31729;DHT22;18309;43.658;1.312;2023-09-30T12:44:10;27.90;88.00
31729;DHT22;18309;43.658;1.312;2023-09-30T12:46:37;27.90;87.90
31729;DHT22;18309;43.658;1.312;2023-09-30T12:49:05;28.20;88.60
31729;DHT22;18309;43.658;1.312;2023-09-30T12:51:31;28.50;87.50
31729;DHT22;18309;43.658;1.312;2023-09-30T12:53:58;28.70;87.70
31729;DHT22;18309;43.658;1.312;2023-09-30T12:56:24;29.20;86.30
31729;DHT22;18309;43.658;1.312;2023-09-30T12:58:50;29.20;85.40
31729;DHT22;18309;43.658;1.312;2023-09-30T13:01:16;29.10;84.90
31729;DHT22;18309;43.658;1.312;2023-09-30T13:03:44;29.10;85.90
31729;DHT22;18309;43.658;1.312;2023-09-30T13:06:10;29.20;84.90
31729;DHT22;18309;43.658;1.312;2023-09-30T13:08:35;29.40;84.30
31729;DHT22;18309;43.658;1.312;2023-09-30T13:11:04;29.60;84.30
31729;DHT22;18309;43.658;1.312;2023-09-30T13:13:31;29.80;84.30
31729;DHT22;18309;43.658;1.312;2023-09-30T13:15:59;30.20;83.00
31729;DHT22;18309;43.658;1.312;2023-09-30T13:18:25;30.20;82.40
31729;DHT22;18309;43.658;1.312;2023-09-30T13:20:51;30.20;82.50
31729;DHT22;18309;43.658;1.312;2023-09-30T13:23:20;30.60;81.10
31729;DHT22;18309;43.658;1.312;2023-09-30T13:25:48;30.80;80.60
31729;DHT22;18309;43.658;1.312;2023-09-30T13:28:13;31.20;80.30
31729;DHT22;18309;43.658;1.312;2023-09-30T13:30:39;31.50;78.60
31729;DHT22;18309;43.658;1.312;2023-09-30T13:33:05;32.00;77.80
31729;DHT22;18309;43.658;1.312;2023-09-30T13:35:32;32.40;76.30
31729;DHT22;18309;43.658;1.312;2023-09-30T13:37:58;32.60;74.70
31729;DHT22;18309;43.658;1.312;2023-09-30T13:40:25;32.90;74.30
31729;DHT22;18309;43.658;1.312;2023-09-30T13:42:51;33.30;73.40
31729;DHT22;18309;43.658;1.312;2023-09-30T13:45:17;33.80;71.40
31729;DHT22;18309;43.658;1.312;2023-09-30T13:47:43;34.10;69.90
31729;DHT22;18309;43.658;1.312;2023-09-30T13:50:09;34.30;68.50
31729;DHT22;18309;43.658;1.312;2023-09-30T13:52:35;35.00;66.80
31729;DHT22;18309;43.658;1.312;2023-09-30T13:55:02;36.10;63.20
31729;DHT22;18309;43.658;1.312;2023-09-30T13:57:28;37.50;59.50
31729;DHT22;18309;43.658;1.312;2023-09-30T13:59:54;39.40;56.00
31729;DHT22;18309;43.658;1.312;2023-09-30T14:02:21;40.80;54.20
31729;DHT22;18309;43.658;1.312;2023-09-30T14:04:48;42.60;52.50
31729;DHT22;18309;43.658;1.312;2023-09-30T14:07:14;42.60;50.80
31729;DHT22;18309;43.658;1.312;2023-09-30T14:09:39;43.30;50.40
31729;DHT22;18309;43.658;1.312;2023-09-30T14:12:05;44.10;49.00
31729;DHT22;18309;43.658;1.312;2023-09-30T14:14:34;45.10;48.10
31729;DHT22;18309;43.658;1.312;2023-09-30T14:17:00;45.30;47.60
31729;DHT22;18309;43.658;1.312;2023-09-30T14:19:33;45.00;47.10
31729;DHT22;18309;43.658;1.312;2023-09-30T14:21:59;45.50;46.90
31729;DHT22;18309;43.658;1.312;2023-09-30T14:24:24;45.40;46.30
31729;DHT22;18309;43.658;1.312;2023-09-30T14:26:50;45.20;47.20
31729;DHT22;18309;43.658;1.312;2023-09-30T14:29:16;45.40;46.60
31729;DHT22;18309;43.658;1.312;2023-09-30T14:31:41;45.80;46.00
31729;DHT22;18309;43.658;1.312;2023-09-30T14:34:07;45.70;45.60
31729;DHT22;18309;43.658;1.312;2023-09-30T14:36:33;45.80;45.40
31729;DHT22;18309;43.658;1.312;2023-09-30T14:39:00;46.50;45.70
31729;DHT22;18309;43.658;1.312;2023-09-30T14:41:25;46.20;45.60
31729;DHT22;18309;43.658;1.312;2023-09-30T14:43:51;46.30;44.90
31729;DHT22;18309;43.658;1.312;2023-09-30T14:46:16;46.30;45.00
31729;DHT22;18309;43.658;1.312;2023-09-30T14:48:42;45.90;45.30
31729;DHT22;18309;43.658;1.312;2023-09-30T14:51:09;45.10;46.60
31729;DHT22;18309;43.658;1.312;2023-09-30T14:53:36;44.60;46.90
31729;DHT22;18309;43.658;1.312;2023-09-30T14:56:02;43.80;48.50
31729;DHT22;18309;43.658;1.312;2023-09-30T14:58:28;43.10;49.80
31729;DHT22;18309;43.658;1.312;2023-09-30T15:00:53;42.10;51.10
31729;DHT22;18309;43.658;1.312;2023-09-30T15:03:19;41.30;52.40
31729;DHT22;18309;43.658;1.312;2023-09-30T15:05:47;40.50;53.90
31729;DHT22;18309;43.658;1.312;2023-09-30T15:08:14;40.10;54.20
31729;DHT22;18309;43.658;1.312;2023-09-30T15:10:41;39.40;55.20
31729;DHT22;18309;43.658;1.312;2023-09-30T15:13:08;38.90;55.70
31729;DHT22;18309;43.658;1.312;2023-09-30T15:15:37;38.60;56.50
31729;DHT22;18309;43.658;1.312;2023-09-30T15:18:03;38.30;56.50
31729;DHT22;18309;43.658;1.312;2023-09-30T15:20:30;38.00;57.30
31729;DHT22;18309;43.658;1.312;2023-09-30T15:22:57;37.90;57.30
31729;DHT22;18309;43.658;1.312;2023-09-30T15:25:22;37.50;57.50
31729;DHT22;18309;43.658;1.312;2023-09-30T15:27:48;37.10;57.60
31729;DHT22;18309;43.658;1.312;2023-09-30T15:30:15;36.90;58.40
31729;DHT22;18309;43.658;1.312;2023-09-30T15:32:41;36.60;58.40
31729;DHT22;18309;43.658;1.312;2023-09-30T15:35:08;36.50;58.80
31729;DHT22;18309;43.658;1.312;2023-09-30T15:37:34;36.40;59.30
31729;DHT22;18309;43.658;1.312;2023-09-30T15:39:59;36.30;59.40
31729;DHT22;18309;43.658;1.312;2023-09-30T15:42:26;35.50;60.00
31729;DHT22;18309;43.658;1.312;2023-09-30T15:44:52;35.50;60.50
31729;DHT22;18309;43.658;1.312;2023-09-30T15:47:22;35.50;60.50
31729;DHT22;18309;43.658;1.312;2023-09-30T15:49:49;35.50;60.60
31729;DHT22;18309;43.658;1.312;2023-09-30T15:52:16;35.50;60.70
31729;DHT22;18309;43.658;1.312;2023-09-30T15:54:41;35.30;60.80